createdAt,value
2019-03-26T00:00:52.481Z,12.90
2019-03-26T00:03:24.589Z,12.93
2019-03-26T00:05:55.025Z,12.47
2019-03-26T00:08:25.688Z,12.50
2019-03-26T00:11:01.061Z,14.43
2019-03-26T00:13:32.185Z,10.83
2019-03-26T00:16:02.935Z,13.87
2019-03-26T00:18:37.534Z,12.10
2019-03-26T00:21:07.991Z,11.57
2019-03-26T00:23:38.461Z,12.53
2019-03-26T00:26:13.829Z,13.03
2019-03-26T00:28:44.692Z,13.93
2019-03-26T00:31:15.211Z,12.93
2019-03-26T00:33:45.973Z,11.83
2019-03-26T00:36:22.622Z,13.90
2019-03-26T00:38:52.973Z,11.50
2019-03-26T00:41:23.444Z,12.50
2019-03-26T00:43:55.317Z,12.53
2019-03-26T00:46:28.237Z,14.60
2019-03-26T00:48:59.679Z,15.20
2019-03-26T00:51:30.430Z,13.57
2019-03-26T00:54:00.650Z,12.97
2019-03-26T01:01:45.415Z,12.73
2019-03-26T01:04:31.822Z,14.17
2019-03-26T01:06:51.584Z,13.90
2019-03-26T01:09:23.739Z,15.60
2019-03-26T01:11:54.333Z,13.33
2019-03-26T01:14:27.450Z,16.40
2019-03-26T01:16:58.558Z,13.47
2019-03-26T01:19:28.556Z,14.13
2019-03-26T01:21:59.093Z,13.60
2019-03-26T01:24:30.292Z,13.17
2019-03-26T01:27:01.515Z,14.87
2019-03-26T01:29:48.586Z,13.53
2019-03-26T01:32:18.969Z,15.00
2019-03-26T01:34:50.371Z,15.80
2019-03-26T01:37:21.289Z,20.33
2019-03-26T01:39:52.720Z,14.97
2019-03-26T01:42:24.138Z,16.53
2019-03-26T01:44:58.990Z,15.23
2019-03-26T01:47:30.201Z,16.30
2019-03-26T01:50:00.722Z,12.37
2019-03-26T01:52:30.984Z,15.80
2019-03-26T01:55:04.894Z,17.57
2019-03-26T01:57:35.789Z,15.67
2019-03-26T02:00:07.839Z,15.33
2019-03-26T02:02:39.292Z,14.30
2019-03-26T02:05:09.710Z,14.10
2019-03-26T02:07:40.278Z,12.77
2019-03-26T02:10:11.539Z,16.57
2019-03-26T02:12:42.659Z,17.37
2019-03-26T02:15:21.930Z,15.33
2019-03-26T02:17:52.590Z,18.03
2019-03-26T02:20:23.526Z,15.23
2019-03-26T02:22:57.396Z,15.03
2019-03-26T02:25:27.929Z,13.30
2019-03-26T02:28:03.163Z,18.35
2019-03-26T02:30:35.217Z,16.60
2019-03-26T02:33:07.482Z,13.40
2019-03-26T02:35:37.577Z,14.53
2019-03-26T02:38:13.152Z,14.03
2019-03-26T02:40:46.331Z,15.80
2019-03-26T02:43:17.010Z,14.93
2019-03-26T02:45:48.102Z,18.23
2019-03-26T02:48:18.684Z,15.63
2019-03-26T02:50:48.771Z,15.53
2019-03-26T02:53:19.407Z,18.07
2019-03-26T02:55:53.967Z,17.20
2019-03-26T02:58:27.657Z,20.33
2019-03-26T03:00:58.451Z,18.83
2019-03-26T03:03:29.015Z,19.73
2019-03-26T03:05:59.198Z,19.63
2019-03-26T03:08:29.136Z,20.07
2019-03-26T03:10:59.549Z,16.23
2019-03-26T03:13:31.917Z,16.90
2019-03-26T03:16:03.364Z,19.70
2019-03-26T03:18:34.503Z,21.30
2019-03-26T03:21:05.055Z,21.80
2019-03-26T03:23:35.871Z,18.90
2019-03-26T03:26:06.906Z,19.30
2019-03-26T03:28:38.352Z,19.10
2019-03-26T03:31:13.815Z,22.30
2019-03-26T03:33:44.354Z,18.60
2019-03-26T03:36:15.443Z,19.70
2019-03-26T03:38:48.341Z,19.97
2019-03-26T03:41:19.899Z,20.73
2019-03-26T03:43:50.826Z,26.53
2019-03-26T03:46:22.069Z,18.13
2019-03-26T03:48:59.785Z,19.70
2019-03-26T03:51:35.522Z,21.50
2019-03-26T03:54:08.164Z,19.80
2019-03-26T03:56:42.613Z,23.03
2019-03-26T04:02:03.516Z,23.90
2019-03-26T04:04:34.422Z,21.40
2019-03-26T04:07:08.591Z,21.50
2019-03-26T04:09:41.514Z,23.30
2019-03-26T04:12:19.691Z,22.30
2019-03-26T04:20:12.590Z,20.17
2019-03-26T04:22:44.852Z,19.60
2019-03-26T04:25:15.449Z,21.93
2019-03-26T04:27:46.734Z,19.03
2019-03-26T04:30:24.395Z,22.80
2019-03-26T04:32:55.455Z,22.20
2019-03-26T04:35:28.345Z,23.47
2019-03-26T04:38:00.645Z,20.33
2019-03-26T04:40:36.853Z,24.67
2019-03-26T04:43:07.589Z,20.50
2019-03-26T04:45:38.589Z,21.93
2019-03-26T04:48:08.745Z,23.43
2019-03-26T04:50:39.285Z,20.83
2019-03-26T04:53:09.659Z,22.93
2019-03-26T04:55:40.555Z,23.57
2019-03-26T04:58:10.800Z,24.67
2019-03-26T05:00:44.746Z,25.53
2019-03-26T05:03:15.079Z,25.47
2019-03-26T05:05:47.085Z,25.93
2019-03-26T05:08:18.190Z,22.53
2019-03-26T05:10:53.247Z,25.27
2019-03-26T05:13:32.558Z,27.30
2019-03-26T05:16:07.571Z,23.47
2019-03-26T05:18:41.605Z,23.57
2019-03-26T05:21:15.412Z,22.33
2019-03-26T05:23:45.943Z,24.70
2019-03-26T05:26:32.730Z,24.73
2019-03-26T05:29:22.509Z,21.50
2019-03-26T05:31:53.226Z,24.67
2019-03-26T05:34:44.627Z,16.30
2019-03-26T05:37:23.664Z,24.90
2019-03-26T05:39:54.516Z,22.97
2019-03-26T05:42:25.865Z,24.03
2019-03-26T05:44:56.230Z,25.77
2019-03-26T05:47:26.490Z,23.87
2019-03-26T05:55:08.838Z,27.90
2019-03-26T05:57:39.739Z,30.77
2019-03-26T06:00:16.870Z,25.90
2019-03-26T06:02:47.508Z,31.00
2019-03-26T06:05:17.671Z,27.60
2019-03-26T06:07:48.711Z,36.30
2019-03-26T06:10:18.672Z,30.10
2019-03-26T06:12:50.401Z,26.53
2019-03-26T06:15:20.420Z,26.60
2019-03-26T06:36:29.585Z,27.43
2019-03-26T06:42:44.435Z,25.60
2019-03-26T06:45:15.800Z,25.57
2019-03-26T06:47:47.059Z,31.03
2019-03-26T07:13:36.534Z,26.17
2019-03-26T07:20:58.969Z,27.97
2019-03-26T07:34:55.392Z,30.67
2019-03-26T07:37:43.918Z,21.80
2019-03-26T07:40:03.833Z,26.43
2019-03-26T07:42:38.284Z,27.25
2019-03-26T07:45:12.596Z,28.83
2019-03-26T07:47:48.985Z,24.00
2019-03-26T07:50:20.164Z,26.90
2019-03-26T07:53:17.810Z,23.00
2019-03-26T07:56:54.669Z,29.53
2019-03-26T08:15:29.312Z,25.87
2019-03-26T08:21:34.205Z,31.73
2019-03-26T08:27:01.797Z,28.70
2019-03-26T08:33:05.104Z,28.47
2019-03-26T08:35:38.278Z,22.53
2019-03-26T08:38:13.115Z,20.63
2019-03-26T08:40:41.652Z,22.57
2019-03-26T08:43:15.340Z,27.33
2019-03-26T08:45:57.960Z,21.03
2019-03-26T08:54:26.270Z,21.83
2019-03-26T08:56:59.673Z,22.20
2019-03-26T08:59:30.200Z,21.90
2019-03-26T09:06:21.409Z,28.23
2019-03-26T09:09:39.790Z,19.17
2019-03-26T09:15:14.783Z,21.40
2019-03-26T09:18:19.885Z,22.53
2019-03-26T09:20:53.281Z,19.57
2019-03-26T09:23:24.494Z,22.13
2019-03-26T09:31:46.271Z,17.67
2019-03-26T09:34:17.438Z,17.77
2019-03-26T09:36:48.048Z,16.23
2019-03-26T09:39:24.005Z,18.33
2019-03-26T09:41:55.107Z,17.20
2019-03-26T09:44:44.712Z,16.10
2019-03-26T09:52:41.610Z,18.87
2019-03-26T09:55:25.839Z,15.37
2019-03-26T09:58:01.559Z,18.37
2019-03-26T10:00:31.856Z,17.90
2019-03-26T10:03:12.760Z,17.50
2019-03-26T10:05:43.462Z,21.03
2019-03-26T10:08:13.903Z,18.70
2019-03-26T10:10:44.796Z,13.00
2019-03-26T10:13:16.086Z,14.27
2019-03-26T10:15:46.830Z,14.93
2019-03-26T10:18:21.035Z,13.70
2019-03-26T10:20:51.353Z,17.47
2019-03-26T10:23:23.889Z,14.10
2019-03-26T10:25:55.092Z,13.37
2019-03-26T10:28:26.806Z,11.73
2019-03-26T10:30:57.857Z,17.97
2019-03-26T10:33:28.935Z,14.30
2019-03-26T10:35:59.482Z,13.33
2019-03-26T10:38:33.977Z,13.23
2019-03-26T10:41:04.659Z,11.97
2019-03-26T10:43:35.871Z,12.83
2019-03-26T10:46:06.249Z,17.33
2019-03-26T10:48:36.555Z,16.53
2019-03-26T10:51:07.269Z,12.97
2019-03-26T10:53:38.426Z,12.00
2019-03-26T10:56:09.704Z,13.40
2019-03-26T10:58:40.275Z,12.53
2019-03-26T11:01:11.270Z,13.83
2019-03-26T11:03:41.460Z,15.70
2019-03-26T11:06:11.656Z,17.73
2019-03-26T11:08:45.213Z,15.57
2019-03-26T11:11:21.726Z,15.17
2019-03-26T11:13:52.378Z,11.00
2019-03-26T11:16:23.425Z,14.77
2019-03-26T11:18:54.750Z,11.30
2019-03-26T11:21:27.031Z,9.80
2019-03-26T11:24:03.940Z,16.67
2019-03-26T11:26:38.410Z,9.57
2019-03-26T11:32:13.753Z,12.10
2019-03-26T11:34:52.098Z,10.40
2019-03-26T11:37:27.947Z,9.37
2019-03-26T11:39:59.664Z,15.57
2019-03-26T11:42:31.243Z,13.60
2019-03-26T11:45:02.357Z,19.47
2019-03-26T11:47:33.135Z,11.63
2019-03-26T11:50:04.896Z,15.10
2019-03-26T11:52:35.360Z,11.07
2019-03-26T11:55:08.598Z,11.20
2019-03-26T11:57:39.393Z,12.73
2019-03-26T12:00:14.162Z,11.80
2019-03-26T12:02:44.590Z,9.20
2019-03-26T12:05:15.897Z,10.73
2019-03-26T12:07:46.875Z,9.57
2019-03-26T12:10:20.347Z,13.50
2019-03-26T12:13:02.794Z,16.73
2019-03-26T12:15:36.059Z,11.00
2019-03-26T12:18:13.485Z,11.63
2019-03-26T12:20:44.399Z,9.33
2019-03-26T12:23:21.004Z,9.27
2019-03-26T12:25:55.835Z,9.33
2019-03-26T12:28:27.342Z,10.17
2019-03-26T12:30:58.468Z,10.50
2019-03-26T12:33:29.050Z,11.73
2019-03-26T12:35:59.665Z,10.50
2019-03-26T12:38:39.057Z,10.60
2019-03-26T12:41:09.212Z,10.13
2019-03-26T12:43:39.655Z,13.00
2019-03-26T12:46:14.204Z,11.17
2019-03-26T12:49:43.868Z,10.00
2019-03-26T12:52:14.269Z,9.07
2019-03-26T12:55:01.094Z,10.10
2019-03-26T12:57:31.776Z,14.17
2019-03-26T13:02:38.023Z,11.77
2019-03-26T13:05:09.080Z,8.70
2019-03-26T13:07:39.929Z,10.23
2019-03-26T13:10:14.432Z,10.63
2019-03-26T13:12:46.839Z,9.17
2019-03-26T13:15:26.504Z,14.53
2019-03-26T13:17:57.879Z,11.37
2019-03-26T13:23:18.548Z,11.70
2019-03-26T13:25:49.045Z,8.53
2019-03-26T13:28:19.908Z,9.73
2019-03-26T13:30:51.008Z,10.07
2019-03-26T13:33:21.687Z,17.93
2019-03-26T13:35:52.149Z,8.37
2019-03-26T13:38:24.546Z,9.83
2019-03-26T13:40:59.290Z,8.60
2019-03-26T13:46:55.463Z,12.33
2019-03-26T13:49:26.843Z,8.43
2019-03-26T13:55:20.751Z,9.57
2019-03-26T14:00:37.578Z,7.73
2019-03-26T14:03:08.913Z,7.00
2019-03-26T14:05:39.738Z,9.23
2019-03-26T14:08:11.990Z,7.37
2019-03-26T14:12:06.158Z,9.40
2019-03-26T14:15:32.402Z,9.23
2019-03-26T14:18:04.564Z,13.97
2019-03-26T14:20:39.242Z,9.00
2019-03-26T14:23:11.664Z,12.67
2019-03-26T14:25:42.118Z,8.83
2019-03-26T14:28:13.154Z,8.37
2019-03-26T14:30:49.685Z,8.87
2019-03-26T14:33:44.410Z,10.43
2019-03-26T14:36:21.440Z,8.50
2019-03-26T14:43:11.366Z,10.20
2019-03-26T14:45:50.582Z,10.28
2019-03-26T14:51:11.260Z,13.13
2019-03-26T14:54:02.979Z,8.13
2019-03-26T14:56:38.819Z,8.43
2019-03-26T14:59:09.125Z,8.40
2019-03-26T15:01:42.471Z,11.83
2019-03-26T15:04:13.032Z,8.10
2019-03-26T15:06:43.306Z,9.47
2019-03-26T15:09:13.949Z,7.70
2019-03-26T15:11:44.265Z,10.83
2019-03-26T15:14:14.745Z,9.90
2019-03-26T15:16:45.396Z,11.60
2019-03-26T15:19:15.968Z,11.83
2019-03-26T15:21:46.822Z,10.07
2019-03-26T15:24:20.349Z,10.23
2019-03-26T15:26:54.799Z,13.73
2019-03-26T15:29:22.634Z,13.00
2019-03-26T15:31:53.012Z,9.67
2019-03-26T15:34:35.336Z,16.17
2019-03-26T15:36:57.964Z,14.33
2019-03-26T15:39:29.363Z,11.03
2019-03-26T15:42:03.296Z,10.00
2019-03-26T15:44:33.421Z,11.73
2019-03-26T15:47:03.914Z,13.30
2019-03-26T15:49:40.055Z,11.20
2019-03-26T15:52:11.250Z,14.57
2019-03-26T15:54:42.665Z,12.77
2019-03-26T15:57:13.068Z,13.00
2019-03-26T15:59:43.628Z,11.40
2019-03-26T16:02:14.145Z,12.97
2019-03-26T16:04:44.406Z,11.77
2019-03-26T16:07:14.590Z,12.43
2019-03-26T16:09:48.931Z,12.90
2019-03-26T16:12:40.556Z,14.27
2019-03-26T16:15:11.645Z,11.03
2019-03-26T16:17:42.682Z,14.30
2019-03-26T16:20:13.259Z,14.80
2019-03-26T16:22:48.276Z,13.57
2019-03-26T16:25:20.158Z,12.93
2019-03-26T16:27:51.722Z,12.10
2019-03-26T16:30:22.407Z,12.73
2019-03-26T16:32:59.859Z,15.37
2019-03-26T16:35:30.762Z,14.03
2019-03-26T16:38:01.052Z,13.80
2019-03-26T16:40:31.574Z,17.20
2019-03-26T16:47:08.019Z,13.93
2019-03-26T16:49:38.593Z,15.77
2019-03-26T16:52:09.275Z,14.87
2019-03-26T16:54:40.470Z,16.70
2019-03-26T16:57:11.654Z,19.13
2019-03-26T16:59:42.898Z,19.27
2019-03-26T17:02:13.569Z,19.93
2019-03-26T17:04:46.866Z,22.67
2019-03-26T17:07:16.850Z,18.57
2019-03-26T17:09:47.841Z,20.13
2019-03-26T17:12:19.034Z,19.17
2019-03-26T17:14:54.058Z,19.80
2019-03-26T17:17:24.649Z,23.20
2019-03-26T17:19:55.612Z,22.03
2019-03-26T17:27:51.909Z,22.60
2019-03-26T17:30:22.761Z,25.70
2019-03-26T17:32:53.183Z,24.70
2019-03-26T17:35:28.904Z,19.73
2019-03-26T17:40:38.856Z,21.90
2019-03-26T17:43:13.461Z,23.50
2019-03-26T17:45:44.233Z,20.97
2019-03-26T17:48:15.126Z,21.77
2019-03-26T17:50:46.534Z,22.53
2019-03-26T17:53:17.817Z,19.00
2019-03-26T17:55:49.165Z,23.63
2019-03-26T17:58:19.353Z,21.10
2019-03-26T18:00:49.664Z,21.33
2019-03-26T18:03:26.197Z,21.57
2019-03-26T18:05:52.262Z,20.13
2019-03-26T18:08:23.046Z,20.80
2019-03-26T18:17:16.015Z,20.93
2019-03-26T18:27:50.483Z,19.43
2019-03-26T18:37:17.076Z,23.13
2019-03-26T18:40:12.937Z,20.40
2019-03-26T18:42:48.595Z,32.97
2019-03-26T18:45:20.726Z,31.60
2019-03-26T18:47:51.555Z,35.10
2019-03-26T18:50:28.480Z,36.20
2019-03-26T18:52:59.486Z,30.07
2019-03-26T18:55:36.212Z,25.00
2019-03-26T18:59:18.376Z,23.43
2019-03-26T19:02:29.335Z,29.30
2019-03-26T19:05:25.347Z,19.77
2019-03-26T19:07:57.137Z,18.97
2019-03-26T19:10:29.570Z,27.20
2019-03-26T19:13:01.225Z,21.20
2019-03-26T19:18:17.245Z,23.10
2019-03-26T19:21:01.039Z,24.20
2019-03-26T19:23:21.149Z,23.20
2019-03-26T19:25:52.934Z,20.93
2019-03-26T19:28:26.988Z,18.13
2019-03-26T19:31:01.017Z,23.60
2019-03-26T19:33:35.426Z,22.40
2019-03-26T19:36:07.382Z,23.40
2019-03-26T19:38:50.264Z,27.03
2019-03-26T19:41:30.177Z,24.60
2019-03-26T19:44:01.112Z,22.80
2019-03-26T19:46:34.476Z,24.43
2019-03-26T19:49:04.847Z,21.90
2019-03-26T19:51:42.473Z,22.40
2019-03-26T19:54:16.949Z,21.23
2019-03-26T19:56:59.036Z,21.77
2019-03-26T19:59:29.779Z,54.50
2019-03-26T20:02:03.049Z,41.33
2019-03-26T20:04:34.692Z,47.80
2019-03-26T20:07:09.685Z,55.53
2019-03-26T20:09:40.593Z,52.50
2019-03-26T20:12:11.454Z,31.67
2019-03-26T20:14:42.424Z,44.03
2019-03-26T20:17:29.252Z,39.90
2019-03-26T20:20:08.217Z,39.73
2019-03-26T20:22:40.042Z,29.90
2019-03-26T20:33:32.658Z,17.87
2019-03-26T20:36:05.390Z,20.37
2019-03-26T20:38:36.840Z,20.00
2019-03-26T20:41:24.318Z,25.00
2019-03-26T20:44:10.425Z,22.37
2019-03-26T20:47:11.075Z,25.20
2019-03-26T20:50:40.584Z,29.57
2019-03-26T20:53:57.099Z,25.57
2019-03-26T20:56:32.356Z,27.00
2019-03-26T21:02:14.561Z,23.80
2019-03-26T21:12:24.652Z,23.47
2019-03-26T21:19:06.544Z,21.77
2019-03-26T21:21:43.290Z,23.17
2019-03-26T21:24:28.534Z,19.87
2019-03-26T21:26:58.928Z,25.47
2019-03-26T21:29:29.719Z,23.53
2019-03-26T21:32:02.374Z,18.60
2019-03-26T21:34:45.200Z,21.80
2019-03-26T21:37:30.411Z,25.63
2019-03-26T21:40:09.502Z,24.10
2019-03-26T21:42:46.061Z,23.30
2019-03-26T21:45:43.336Z,21.90
2019-03-26T21:48:13.940Z,20.03
2019-03-26T21:50:49.374Z,28.07
2019-03-26T21:53:21.070Z,22.40
2019-03-26T21:59:29.204Z,20.07
2019-03-26T22:05:33.510Z,23.83
2019-03-26T22:08:05.215Z,22.20
2019-03-26T22:10:36.755Z,21.10
2019-03-26T22:13:07.593Z,24.07
2019-03-26T22:15:55.471Z,23.37
2019-03-26T22:18:25.984Z,29.13
2019-03-26T22:21:03.786Z,22.77
2019-03-26T22:23:35.903Z,24.63
2019-03-26T22:26:14.181Z,25.30
2019-03-26T22:29:25.923Z,31.00
2019-03-26T22:32:04.679Z,26.53
2019-03-26T22:34:50.700Z,21.73
2019-03-26T22:37:25.457Z,22.73
2019-03-26T22:40:25.375Z,24.30
2019-03-26T22:43:02.528Z,25.90
2019-03-26T22:45:33.909Z,23.77
2019-03-26T22:48:45.028Z,21.13
2019-03-26T23:05:37.504Z,23.87
2019-03-26T23:08:08.240Z,24.23
2019-03-26T23:10:40.742Z,22.60
2019-03-26T23:13:11.062Z,24.30
2019-03-26T23:15:41.718Z,22.07
2019-03-26T23:21:23.329Z,23.00
2019-03-26T23:26:54.795Z,21.93
2019-03-26T23:29:34.161Z,24.43
2019-03-26T23:32:35.215Z,24.37
2019-03-26T23:36:10.267Z,26.70
2019-03-26T23:41:30.501Z,25.87
2019-03-26T23:44:06.952Z,25.30
2019-03-26T23:46:50.957Z,25.20
2019-03-26T23:52:26.787Z,25.50
2019-03-26T23:55:10.711Z,24.83
2019-03-26T23:57:51.308Z,25.30
